Wadena, Minnesota
Current Conditions -  °F | °C
As of 12:35 PM on Sunday 21 Dec 2014 (Local Time) from KADC Reporting Station
Haze Haze  
Wind Chill: 22°   Ceiling: 200
Heat Index: 30°   Visibility: 1mi
Dew Point: 30°   Wind: 9mph
Humidity: 100%   Direction: 150°SSE
Pressure: 29.69"   Gusts: NA
Location:  46.44°N, 95.14°W
Report Text: KADC 211835Z AUTO 15008KT 1SM BR OVC002 M01/M01 A2969 RMK AO2
Loading
Personal Weather Stations






























Interactive Weather Map New forecast layout! Learn more

10-Day Weather Forecast

Advertisements
Track Severe Weather on mobile